首页
METAR-TAF:

METAR-TAF

机场 :

Emporia Municipal Airport

恩波里亚, 堪薩斯州, 美国

纬度: 38-19-44N, 经度: 096-11-38W, 海拔: 367米

当前天气观测

该预报发布于41分钟前的16:53 UTC
风速13节,风向南转西南
温度 36°C
湿度 42%
气压 1012 hPa
能見度: 16.1公里
天空无云

METAR: KEMP 241653Z AUTO 21013KT 10SM CLR 36/21 A2988 RMK AO2 SLP106 T03560211

时间: 12:34 (17:34 UTC)


TAF: 丢失

超过4000个机场的气象观测和天气预报(METAR&TAF报告)。

可查询的气象台以黄色和红色小点在地图上表示。

将鼠标移到小点上方,可查看气象台名称。

然后点击查看天气观测和预报。

如需切换地图:点击带黑十字的绿色按钮放大地图;点击带横线的绿色按钮缩小地图;或者点击绿色箭头查看邻近地区的地图。


METAR-TAF: